createdAt,value
2023-02-18T00:04:24.881Z,8.70
2023-02-18T00:14:30.176Z,8.50
2023-02-18T00:24:33.799Z,8.40
2023-02-18T00:34:39.159Z,8.50
2023-02-18T00:44:42.928Z,8.40
2023-02-18T00:54:48.239Z,8.40
2023-02-18T01:04:51.934Z,8.70
2023-02-18T01:14:57.195Z,8.80
2023-02-18T01:25:00.978Z,8.90
2023-02-18T01:35:08.340Z,8.80
2023-02-18T01:45:58.608Z,8.50
2023-02-18T01:56:08.469Z,8.10
2023-02-18T02:06:19.459Z,7.70
2023-02-18T02:16:39.465Z,7.40
2023-02-18T02:27:14.626Z,7.40
2023-02-18T02:37:29.760Z,7.60
2023-02-18T02:47:49.345Z,7.50
2023-02-18T02:57:57.209Z,7.20
2023-02-18T03:08:26.612Z,7.00
2023-02-18T03:18:39.698Z,6.90
2023-02-18T03:28:44.645Z,6.60
2023-02-18T03:38:57.002Z,6.50
2023-02-18T03:49:01.296Z,6.20
2023-02-18T03:59:06.602Z,5.90
2023-02-18T04:09:10.370Z,5.80
2023-02-18T04:19:15.517Z,5.70
2023-02-18T04:29:19.376Z,5.60
2023-02-18T04:39:24.644Z,5.80
2023-02-18T04:49:28.358Z,5.80
2023-02-18T04:59:33.396Z,5.80
2023-02-18T05:09:37.082Z,5.60
2023-02-18T05:19:42.344Z,5.50
2023-02-18T05:29:46.314Z,5.40
2023-02-18T05:39:51.661Z,5.30
2023-02-18T05:49:56.108Z,5.20
2023-02-18T06:00:01.315Z,5.30
2023-02-18T06:10:05.845Z,5.40
2023-02-18T06:20:12.951Z,5.50
2023-02-18T06:30:17.229Z,5.60
2023-02-18T06:40:22.632Z,5.70
2023-02-18T06:50:26.332Z,6.10
2023-02-18T07:00:31.411Z,6.40
2023-02-18T07:10:35.455Z,6.90
2023-02-18T07:20:40.622Z,6.90
2023-02-18T07:30:44.547Z,7.50
2023-02-18T07:40:50.201Z,7.70
2023-02-18T07:50:53.972Z,7.60
2023-02-18T08:00:59.914Z,7.70
2023-02-18T08:11:18.055Z,7.90
2023-02-18T08:21:26.692Z,7.90
2023-02-18T08:31:32.995Z,7.90
2023-02-18T08:41:38.216Z,8.00
2023-02-18T08:51:41.936Z,8.10
2023-02-18T09:01:47.305Z,8.40
2023-02-18T09:11:51.357Z,8.90
2023-02-18T09:21:59.196Z,9.10
2023-02-18T09:32:05.368Z,8.90
2023-02-18T09:42:16.379Z,8.60
2023-02-18T09:52:25.067Z,8.80
2023-02-18T10:02:30.739Z,8.80
2023-02-18T10:12:36.574Z,8.80
2023-02-18T10:22:42.168Z,9.00
2023-02-18T10:32:47.476Z,9.60
2023-02-18T10:43:09.209Z,9.40
2023-02-18T10:53:16.195Z,8.80
2023-02-18T11:03:23.806Z,8.70
2023-02-18T11:13:31.924Z,8.70
2023-02-18T11:23:49.666Z,8.70
2023-02-18T11:33:56.853Z,9.30
2023-02-18T11:44:03.325Z,9.50
2023-02-18T11:54:24.148Z,8.60
2023-02-18T12:04:35.344Z,8.00
2023-02-18T12:14:39.201Z,7.50
2023-02-18T12:25:03.207Z,7.30
2023-02-18T12:35:34.316Z,7.50
2023-02-18T12:45:59.138Z,7.70
2023-02-18T12:56:37.779Z,7.50
2023-02-18T13:07:15.405Z,7.50
2023-02-18T13:17:21.825Z,7.40
2023-02-18T13:27:35.360Z,7.50
2023-02-18T13:37:52.152Z,7.00
2023-02-18T13:47:58.076Z,6.80
2023-02-18T13:58:02.481Z,6.50
2023-02-18T14:08:17.000Z,6.50
2023-02-18T14:18:53.959Z,6.10
2023-02-18T14:29:04.548Z,5.90
2023-02-18T14:39:26.538Z,5.90
2023-02-18T14:49:41.009Z,5.80
2023-02-18T14:59:47.574Z,6.00
2023-02-18T15:09:56.442Z,5.90
2023-02-18T15:20:06.954Z,5.80
2023-02-18T15:30:22.784Z,5.70
2023-02-18T15:40:30.755Z,5.50
2023-02-18T15:50:40.000Z,5.40
2023-02-18T16:00:50.810Z,5.20
2023-02-18T16:11:03.060Z,5.20
2023-02-18T16:21:25.670Z,5.20
2023-02-18T16:31:31.123Z,5.20
2023-02-18T16:41:34.854Z,5.20
2023-02-18T16:51:42.437Z,5.10
2023-02-18T17:01:47.093Z,5.20
2023-02-18T17:22:15.635Z,5.60
2023-02-18T17:32:21.122Z,6.40
2023-02-18T17:42:24.795Z,7.10
2023-02-18T17:52:32.762Z,7.50
2023-02-18T18:02:36.519Z,7.80
2023-02-18T18:12:42.702Z,7.90
2023-02-18T18:22:46.625Z,8.10
2023-02-18T18:32:52.070Z,8.00
2023-02-18T18:42:58.374Z,8.00
2023-02-18T18:53:03.520Z,8.00
2023-02-18T19:03:07.695Z,7.80
2023-02-18T19:13:16.990Z,7.70
2023-02-18T19:23:21.064Z,7.70
2023-02-18T19:33:26.331Z,7.70
2023-02-18T19:43:29.857Z,7.70
2023-02-18T19:53:35.028Z,7.80
2023-02-18T20:03:38.799Z,7.90
2023-02-18T20:13:44.031Z,7.90
2023-02-18T20:23:47.921Z,7.90
2023-02-18T20:33:53.174Z,7.70
2023-02-18T20:44:01.206Z,7.70
2023-02-18T20:54:09.878Z,7.70
2023-02-18T21:04:14.322Z,7.60
2023-02-18T21:14:19.570Z,7.60
2023-02-18T21:24:23.263Z,7.60
2023-02-18T21:34:28.474Z,7.30
2023-02-18T21:44:42.338Z,7.00
2023-02-18T21:54:48.267Z,6.70
2023-02-18T22:04:53.505Z,6.50
2023-02-18T22:14:59.037Z,6.40
2023-02-18T22:25:02.858Z,6.30
2023-02-18T22:35:09.371Z,6.20
2023-02-18T22:45:13.160Z,6.10
2023-02-18T22:55:18.462Z,6.10
2023-02-18T23:05:22.133Z,6.10
2023-02-18T23:15:27.276Z,6.00
2023-02-18T23:25:32.340Z,5.90
2023-02-18T23:35:37.202Z,5.90
2023-02-18T23:45:40.671Z,5.80
2023-02-18T23:55:45.522Z,5.80
